createdAt,value
2023-01-22T00:02:13.029Z,69.08
2023-01-22T00:04:39.553Z,68.95
2023-01-22T00:07:06.019Z,69.17
2023-01-22T00:09:32.445Z,69.18
2023-01-22T00:11:59.045Z,69.20
2023-01-22T00:14:25.518Z,68.99
2023-01-22T00:16:52.014Z,69.15
2023-01-22T00:19:18.619Z,69.21
2023-01-22T00:21:45.074Z,69.12
2023-01-22T00:24:11.756Z,69.12
2023-01-22T00:26:38.182Z,69.29
2023-01-22T00:29:04.620Z,69.07
2023-01-22T00:31:31.430Z,69.08
2023-01-22T00:33:57.976Z,68.97
2023-01-22T00:36:24.579Z,69.06
2023-01-22T00:38:51.331Z,69.22
2023-01-22T00:41:19.115Z,69.05
2023-01-22T00:43:45.765Z,69.15
2023-01-22T00:46:15.885Z,69.27
2023-01-22T00:48:42.653Z,69.34
2023-01-22T00:51:09.343Z,69.20
2023-01-22T00:53:36.768Z,69.04
2023-01-22T00:56:03.436Z,69.35
2023-01-22T00:58:30.161Z,68.97
2023-01-22T01:00:56.858Z,68.78
2023-01-22T01:03:32.386Z,69.23
2023-01-22T01:06:20.455Z,69.20
2023-01-22T01:08:48.403Z,69.31
2023-01-22T01:11:18.938Z,69.21
2023-01-22T01:13:45.454Z,69.25
2023-01-22T01:16:17.236Z,69.05
2023-01-22T01:18:45.251Z,69.11
2023-01-22T01:21:12.121Z,69.08
2023-01-22T01:23:39.263Z,69.31
2023-01-22T01:26:08.045Z,69.19
2023-01-22T01:28:36.462Z,69.45
2023-01-22T01:31:05.004Z,69.08
2023-01-22T01:33:32.208Z,69.23
2023-01-22T01:36:04.489Z,69.44
2023-01-22T01:38:31.334Z,69.24
2023-01-22T01:40:59.213Z,69.18
2023-01-22T01:43:27.200Z,69.39
2023-01-22T01:45:54.873Z,69.32
2023-01-22T01:48:41.700Z,69.19
2023-01-22T01:51:23.129Z,69.47
2023-01-22T01:53:51.257Z,69.34
2023-01-22T01:56:21.730Z,69.36
2023-01-22T01:58:52.354Z,69.55
2023-01-22T02:01:19.946Z,69.59
2023-01-22T02:03:47.244Z,69.66
2023-01-22T02:06:16.518Z,69.58
2023-01-22T02:08:46.903Z,69.63
2023-01-22T02:11:14.323Z,69.65
2023-01-22T02:13:46.178Z,69.71
2023-01-22T02:16:12.762Z,69.77
2023-01-22T02:18:39.484Z,69.72
2023-01-22T02:21:33.588Z,69.69
2023-01-22T02:24:00.106Z,69.76
2023-01-22T02:26:27.978Z,69.72
2023-01-22T02:28:54.466Z,69.96
2023-01-22T02:31:24.480Z,69.68
2023-01-22T02:33:51.287Z,69.81
2023-01-22T02:36:17.722Z,70.03
2023-01-22T02:38:44.216Z,69.74
2023-01-22T02:41:11.567Z,69.93
2023-01-22T02:43:38.450Z,69.84
2023-01-22T02:46:05.685Z,69.88
2023-01-22T02:48:32.314Z,69.92
2023-01-22T02:50:58.817Z,69.88
2023-01-22T02:53:25.313Z,69.99
2023-01-22T02:55:51.884Z,70.14
2023-01-22T02:58:18.319Z,70.04
2023-01-22T03:00:44.809Z,70.16
2023-01-22T03:03:15.379Z,70.04
2023-01-22T03:05:51.107Z,69.99
2023-01-22T03:08:19.596Z,69.91
2023-01-22T03:10:46.445Z,69.97
2023-01-22T03:13:31.717Z,70.27
2023-01-22T03:16:16.879Z,69.92
2023-01-22T03:19:02.977Z,70.36
2023-01-22T03:21:29.446Z,70.06
2023-01-22T03:23:56.055Z,70.19
2023-01-22T03:26:23.561Z,70.16
2023-01-22T03:28:50.865Z,70.34
2023-01-22T03:31:17.610Z,70.50
2023-01-22T03:33:44.226Z,70.51
2023-01-22T03:36:14.182Z,70.40
2023-01-22T03:38:46.104Z,70.53
2023-01-22T03:41:17.902Z,70.20
2023-01-22T03:43:46.541Z,70.65
2023-01-22T03:46:20.174Z,70.35
2023-01-22T03:48:51.677Z,70.50
2023-01-22T03:51:18.967Z,70.47
2023-01-22T03:53:46.553Z,70.55
2023-01-22T03:56:20.029Z,70.70
2023-01-22T03:58:48.134Z,70.69
2023-01-22T04:01:17.095Z,70.48
2023-01-22T04:03:44.143Z,70.63
2023-01-22T04:06:12.653Z,70.82
2023-01-22T04:08:41.589Z,70.57
2023-01-22T04:11:10.790Z,70.66
2023-01-22T04:13:39.375Z,70.48
2023-01-22T04:16:08.752Z,70.68
2023-01-22T04:18:55.133Z,70.80
2023-01-22T04:21:34.860Z,70.91
2023-01-22T04:24:03.228Z,70.53
2023-01-22T04:26:31.480Z,71.05
2023-01-22T04:29:00.287Z,70.71
2023-01-22T04:31:26.934Z,70.79
2023-01-22T04:33:59.833Z,70.89
2023-01-22T04:36:29.878Z,71.11
2023-01-22T04:38:56.512Z,70.89
2023-01-22T04:41:22.982Z,71.00
2023-01-22T04:43:49.836Z,71.01
2023-01-22T04:46:18.438Z,70.99
2023-01-22T04:48:46.281Z,70.79
2023-01-22T04:51:13.362Z,70.96
2023-01-22T04:53:39.907Z,71.13
2023-01-22T04:56:07.663Z,70.83
2023-01-22T04:58:34.176Z,71.12
2023-01-22T05:01:00.742Z,70.81
2023-01-22T05:03:27.251Z,71.12
2023-01-22T05:05:53.806Z,71.05
2023-01-22T05:08:20.239Z,71.03
2023-01-22T05:10:47.503Z,71.05
2023-01-22T05:13:20.218Z,70.86
2023-01-22T05:15:47.536Z,71.02
2023-01-22T05:18:14.537Z,71.26
2023-01-22T05:20:50.205Z,71.13
2023-01-22T05:23:18.226Z,70.76
2023-01-22T05:25:50.949Z,71.10
2023-01-22T05:28:28.797Z,71.23
2023-01-22T05:31:11.985Z,71.22
2023-01-22T05:33:47.133Z,71.21
2023-01-22T05:36:14.852Z,71.04
2023-01-22T05:38:41.895Z,71.01
2023-01-22T05:41:08.869Z,70.95
2023-01-22T05:43:38.846Z,71.36
2023-01-22T05:46:08.186Z,71.32
2023-01-22T05:49:09.897Z,71.38
2023-01-22T05:51:36.677Z,71.15
2023-01-22T05:54:03.254Z,71.35
2023-01-22T05:56:32.651Z,71.27
2023-01-22T05:58:59.647Z,71.32
2023-01-22T06:01:26.709Z,71.15
2023-01-22T06:03:54.836Z,71.58
2023-01-22T06:06:23.955Z,71.43
2023-01-22T06:08:52.669Z,71.38
2023-01-22T06:11:20.935Z,71.33
2023-01-22T06:13:47.730Z,71.47
2023-01-22T06:16:17.123Z,71.57
2023-01-22T06:19:06.647Z,71.44
2023-01-22T06:21:40.985Z,71.44
2023-01-22T06:24:08.269Z,71.27
2023-01-22T06:26:35.418Z,71.43
2023-01-22T06:29:03.510Z,71.82
2023-01-22T06:31:31.464Z,71.45
2023-01-22T06:33:58.022Z,71.33
2023-01-22T06:36:24.503Z,71.62
2023-01-22T06:38:51.517Z,71.50
2023-01-22T06:41:31.803Z,71.67
2023-01-22T06:44:01.029Z,71.75
2023-01-22T06:46:27.556Z,71.50
2023-01-22T06:49:01.563Z,71.25
2023-01-22T06:51:29.695Z,71.48
2023-01-22T06:53:56.622Z,71.48
2023-01-22T06:56:23.431Z,71.91
2023-01-22T06:58:50.690Z,71.85
2023-01-22T07:01:17.232Z,72.04
2023-01-22T07:03:46.291Z,71.56
2023-01-22T07:06:13.209Z,71.87
2023-01-22T07:08:40.931Z,71.61
2023-01-22T07:11:08.037Z,71.77
2023-01-22T07:13:34.613Z,71.86
2023-01-22T07:16:03.020Z,71.97
2023-01-22T07:18:29.627Z,71.74
2023-01-22T07:21:00.500Z,71.83
2023-01-22T07:23:27.047Z,72.00
2023-01-22T07:25:53.473Z,71.85
2023-01-22T07:28:19.934Z,71.84
2023-01-22T07:30:47.067Z,71.75
2023-01-22T07:33:14.379Z,71.68
2023-01-22T07:35:41.168Z,71.84
2023-01-22T07:38:08.456Z,72.02
2023-01-22T07:40:35.197Z,71.60
2023-01-22T07:43:05.704Z,71.70
2023-01-22T07:45:34.641Z,71.95
2023-01-22T07:48:02.479Z,72.00
2023-01-22T07:50:31.135Z,72.09
2023-01-22T07:53:00.462Z,72.05
2023-01-22T07:55:27.081Z,72.06
2023-01-22T07:58:01.532Z,72.06
2023-01-22T08:00:28.287Z,71.94
2023-01-22T08:02:54.732Z,71.87
2023-01-22T08:05:21.352Z,72.06
2023-01-22T08:07:47.820Z,72.00
2023-01-22T08:10:15.095Z,72.04
2023-01-22T08:12:45.217Z,72.08
2023-01-22T08:15:13.765Z,72.10
2023-01-22T08:17:40.474Z,71.84
2023-01-22T08:20:07.759Z,72.04
2023-01-22T08:22:34.195Z,72.04
2023-01-22T08:25:00.587Z,72.05
2023-01-22T08:27:27.090Z,72.18
2023-01-22T08:29:53.519Z,71.77
2023-01-22T08:32:20.008Z,71.87
2023-01-22T08:34:46.662Z,72.18
2023-01-22T08:37:13.249Z,72.27
2023-01-22T08:39:39.658Z,72.14
2023-01-22T08:42:06.130Z,72.28
2023-01-22T08:44:33.012Z,72.09
2023-01-22T08:46:59.527Z,72.12
2023-01-22T08:49:26.475Z,72.38
2023-01-22T08:51:53.283Z,72.19
2023-01-22T08:54:19.761Z,71.95
2023-01-22T08:56:47.945Z,72.29
2023-01-22T08:59:15.406Z,72.15
2023-01-22T09:01:41.920Z,72.24
2023-01-22T09:04:09.630Z,72.12
2023-01-22T09:06:37.444Z,72.02
2023-01-22T09:09:05.994Z,72.22
2023-01-22T09:11:33.266Z,72.29
2023-01-22T09:13:59.760Z,71.97
2023-01-22T09:16:27.552Z,72.09
2023-01-22T09:18:54.035Z,72.03
2023-01-22T09:21:20.630Z,72.00
2023-01-22T09:23:47.099Z,72.27
2023-01-22T09:26:13.756Z,72.32
2023-01-22T09:28:40.225Z,72.03
2023-01-22T09:31:12.224Z,72.07
2023-01-22T09:33:38.842Z,72.37
2023-01-22T09:36:08.961Z,72.33
2023-01-22T09:38:35.448Z,72.11
2023-01-22T09:41:07.744Z,72.31
2023-01-22T09:43:37.547Z,72.30
2023-01-22T09:46:16.731Z,72.19
2023-01-22T09:48:47.955Z,72.38
2023-01-22T09:51:15.675Z,72.17
2023-01-22T09:54:03.923Z,72.52
2023-01-22T09:56:37.215Z,72.12
2023-01-22T09:59:06.580Z,72.41
2023-01-22T10:01:34.864Z,72.40
2023-01-22T10:04:05.346Z,72.37
2023-01-22T10:06:32.823Z,72.54
2023-01-22T10:09:09.501Z,72.23
2023-01-22T10:11:39.532Z,72.44
2023-01-22T10:14:12.220Z,72.45
2023-01-22T10:16:38.712Z,72.44
2023-01-22T10:19:20.503Z,72.52
2023-01-22T10:21:50.401Z,72.17
2023-01-22T10:24:16.872Z,72.12
2023-01-22T10:26:49.404Z,72.23
2023-01-22T10:29:22.379Z,72.28
2023-01-22T10:31:53.259Z,72.40
2023-01-22T10:34:34.254Z,72.19
2023-01-22T10:37:14.577Z,72.53
2023-01-22T10:39:43.460Z,72.41
2023-01-22T10:42:17.883Z,71.90
2023-01-22T10:44:45.531Z,72.41
2023-01-22T10:47:27.565Z,72.14
2023-01-22T10:50:04.692Z,72.26
2023-01-22T10:52:54.659Z,71.98
2023-01-22T10:55:24.273Z,72.28
2023-01-22T10:58:02.988Z,72.15
2023-01-22T11:00:46.649Z,72.25
2023-01-22T11:03:24.194Z,72.24
2023-01-22T11:05:59.922Z,72.45
2023-01-22T11:08:30.921Z,72.18
2023-01-22T11:11:01.924Z,72.28
2023-01-22T11:13:41.937Z,72.26
2023-01-22T11:16:23.935Z,72.40
2023-01-22T11:19:00.950Z,72.17
2023-01-22T11:21:32.881Z,72.27
2023-01-22T11:24:19.163Z,72.39
2023-01-22T11:27:07.233Z,72.44
2023-01-22T11:30:02.912Z,72.35
2023-01-22T11:32:59.051Z,72.33
2023-01-22T11:35:53.938Z,72.46
2023-01-22T11:38:23.486Z,72.25
2023-01-22T11:41:01.795Z,72.44
2023-01-22T11:43:42.113Z,72.59
2023-01-22T11:46:54.071Z,72.45
2023-01-22T11:49:40.467Z,72.35
2023-01-22T11:52:40.760Z,72.29
2023-01-22T11:55:36.094Z,72.53
2023-01-22T11:58:27.810Z,72.30
2023-01-22T12:01:15.444Z,72.67
2023-01-22T12:03:51.608Z,72.58
2023-01-22T12:06:50.124Z,72.70
2023-01-22T12:09:23.519Z,72.62
2023-01-22T12:12:14.406Z,72.37
2023-01-22T12:15:05.379Z,72.68
2023-01-22T12:17:46.597Z,72.36
2023-01-22T12:20:19.476Z,72.33
2023-01-22T12:23:01.072Z,72.59
2023-01-22T12:25:58.748Z,72.10
2023-01-22T12:28:51.900Z,72.45
2023-01-22T12:31:33.530Z,72.18
2023-01-22T12:34:09.951Z,72.23
2023-01-22T12:36:36.960Z,72.36
2023-01-22T12:39:23.292Z,72.15
2023-01-22T12:42:16.203Z,72.04
2023-01-22T12:45:06.793Z,72.17
2023-01-22T12:47:46.617Z,72.21
2023-01-22T12:50:21.393Z,72.06
2023-01-22T12:53:03.314Z,72.03
2023-01-22T12:55:37.186Z,72.26
2023-01-22T12:58:04.861Z,72.01
2023-01-22T13:00:38.968Z,72.20
2023-01-22T13:03:32.744Z,71.76
2023-01-22T13:06:02.742Z,71.88
2023-01-22T13:08:42.234Z,71.86
2023-01-22T13:11:27.569Z,71.81
2023-01-22T13:14:09.792Z,72.05
2023-01-22T13:16:41.639Z,72.02
2023-01-22T13:19:22.038Z,71.79
2023-01-22T13:21:49.769Z,72.14
2023-01-22T13:24:19.223Z,71.80
2023-01-22T13:26:59.988Z,71.77
2023-01-22T13:29:28.609Z,72.13
2023-01-22T13:32:14.220Z,72.21
2023-01-22T13:34:40.703Z,71.88
2023-01-22T13:37:17.894Z,72.21
2023-01-22T13:39:44.327Z,71.81
2023-01-22T13:42:12.447Z,71.89
2023-01-22T13:44:47.873Z,72.00
2023-01-22T13:47:28.611Z,71.88
2023-01-22T13:49:55.381Z,72.01
2023-01-22T13:52:22.747Z,72.17
2023-01-22T13:55:05.641Z,71.74
2023-01-22T13:57:32.688Z,71.82
2023-01-22T14:00:01.392Z,72.00
2023-01-22T14:02:30.265Z,72.12
2023-01-22T14:04:57.131Z,72.38
2023-01-22T14:07:37.880Z,72.00
2023-01-22T14:10:14.063Z,71.90
2023-01-22T14:12:40.640Z,71.92
2023-01-22T14:15:18.399Z,71.90
2023-01-22T14:17:45.082Z,72.04
2023-01-22T14:20:12.698Z,72.13
2023-01-22T14:22:39.892Z,72.35
2023-01-22T14:25:07.151Z,72.26
2023-01-22T14:27:48.680Z,72.02
2023-01-22T14:30:17.978Z,71.79
2023-01-22T14:32:45.808Z,72.16
2023-01-22T14:35:21.645Z,72.19
2023-01-22T14:37:48.461Z,71.96
2023-01-22T14:40:17.776Z,71.92
2023-01-22T14:42:46.793Z,71.85
2023-01-22T14:45:16.484Z,72.08
2023-01-22T14:47:43.662Z,72.03
2023-01-22T14:50:11.338Z,71.94
2023-01-22T14:52:38.665Z,71.87
2023-01-22T14:55:05.769Z,72.39
2023-01-22T14:57:32.312Z,71.82
2023-01-22T15:00:01.243Z,72.13
2023-01-22T15:02:27.903Z,71.98
2023-01-22T15:04:54.484Z,72.33
2023-01-22T15:07:20.969Z,72.00
2023-01-22T15:09:47.710Z,71.94
2023-01-22T15:12:14.300Z,71.74
2023-01-22T15:14:41.247Z,72.10
2023-01-22T15:17:07.658Z,72.16
2023-01-22T15:19:41.001Z,71.88
2023-01-22T15:22:08.246Z,72.03
2023-01-22T15:24:34.765Z,72.10
2023-01-22T15:27:01.286Z,72.02
2023-01-22T15:29:27.770Z,72.09
2023-01-22T15:31:54.273Z,71.93
2023-01-22T15:34:20.738Z,71.71
2023-01-22T15:36:47.168Z,72.31
2023-01-22T15:39:13.638Z,72.04
2023-01-22T15:41:40.253Z,71.76
2023-01-22T15:44:07.328Z,72.12
2023-01-22T15:46:39.267Z,71.77
2023-01-22T15:49:08.369Z,71.98
2023-01-22T15:51:36.109Z,71.74
2023-01-22T15:54:04.664Z,71.75
2023-01-22T15:56:34.029Z,72.12
2023-01-22T15:59:00.826Z,72.05
2023-01-22T16:01:28.118Z,71.81
2023-01-22T16:03:56.318Z,72.02
2023-01-22T16:06:24.786Z,72.18
2023-01-22T16:08:53.836Z,71.78
2023-01-22T16:11:21.417Z,72.21
2023-01-22T16:13:48.134Z,71.89
2023-01-22T16:16:21.477Z,72.13
2023-01-22T16:18:48.873Z,71.94
2023-01-22T16:21:16.390Z,72.31
2023-01-22T16:23:45.656Z,71.85
2023-01-22T16:26:18.192Z,72.13
2023-01-22T16:28:46.166Z,72.02
2023-01-22T16:31:16.487Z,71.79
2023-01-22T16:33:45.783Z,71.87
2023-01-22T16:36:18.363Z,71.94
2023-01-22T16:38:45.128Z,71.93
2023-01-22T16:41:24.454Z,71.68
2023-01-22T16:44:06.257Z,71.95
2023-01-22T16:46:35.352Z,71.63
2023-01-22T16:49:05.414Z,71.81
2023-01-22T16:51:38.048Z,71.83
2023-01-22T16:54:05.479Z,71.93
2023-01-22T16:56:32.612Z,71.92
2023-01-22T16:58:59.803Z,71.98
2023-01-22T17:01:28.841Z,71.79
2023-01-22T17:03:55.791Z,72.04
2023-01-22T17:06:26.523Z,71.91
2023-01-22T17:08:53.950Z,72.16
2023-01-22T17:11:21.122Z,72.05
2023-01-22T17:13:47.976Z,71.78
2023-01-22T17:16:15.165Z,71.87
2023-01-22T17:18:42.002Z,71.84
2023-01-22T17:21:12.645Z,71.92
2023-01-22T17:23:39.098Z,71.91
2023-01-22T17:26:10.945Z,72.10
2023-01-22T17:28:39.388Z,71.75
2023-01-22T17:31:11.706Z,71.67
2023-01-22T17:33:38.687Z,71.93
2023-01-22T17:36:06.081Z,72.22
2023-01-22T17:38:37.429Z,71.92
2023-01-22T17:41:10.330Z,72.13
2023-01-22T17:43:38.853Z,72.14
2023-01-22T17:46:10.921Z,72.16
2023-01-22T17:48:38.428Z,72.00
2023-01-22T17:51:10.884Z,71.96
2023-01-22T17:53:39.225Z,72.01
2023-01-22T17:56:06.800Z,71.90
2023-01-22T17:58:33.253Z,72.11
2023-01-22T18:01:05.477Z,72.26
2023-01-22T18:03:31.961Z,72.02
2023-01-22T18:05:58.461Z,71.94
2023-01-22T18:08:25.055Z,71.91
2023-01-22T18:10:52.771Z,72.23
2023-01-22T18:13:19.669Z,71.87
2023-01-22T18:15:47.578Z,71.78
2023-01-22T18:18:14.977Z,71.92
2023-01-22T18:20:45.608Z,71.96
2023-01-22T18:23:14.163Z,72.07
2023-01-22T18:25:47.268Z,71.80
2023-01-22T18:28:14.926Z,72.25
2023-01-22T18:30:41.417Z,72.30
2023-01-22T18:33:09.430Z,72.33
2023-01-22T18:35:36.536Z,72.24
2023-01-22T18:38:03.081Z,72.20
2023-01-22T18:40:31.052Z,71.83
2023-01-22T18:42:57.992Z,71.96
2023-01-22T18:45:25.182Z,72.40
2023-01-22T18:47:55.293Z,72.23
2023-01-22T18:50:22.509Z,72.20
2023-01-22T18:52:49.359Z,72.09
2023-01-22T18:55:17.468Z,72.16
2023-01-22T18:57:46.307Z,72.20
2023-01-22T19:00:13.677Z,72.03
2023-01-22T19:02:40.614Z,72.15
2023-01-22T19:05:07.425Z,72.05
2023-01-22T19:07:38.062Z,72.39
2023-01-22T19:10:06.343Z,72.06
2023-01-22T19:12:32.786Z,72.05
2023-01-22T19:14:59.306Z,71.99
2023-01-22T19:17:25.782Z,72.09
2023-01-22T19:19:52.360Z,72.49
2023-01-22T19:22:18.848Z,72.18
2023-01-22T19:24:45.622Z,72.13
2023-01-22T19:27:12.619Z,72.28
2023-01-22T19:29:39.660Z,72.42
2023-01-22T19:32:06.455Z,72.43
2023-01-22T19:34:35.713Z,72.01
2023-01-22T19:37:03.386Z,72.41
2023-01-22T19:39:30.391Z,72.22
2023-01-22T19:41:58.055Z,72.14
2023-01-22T19:44:24.562Z,72.36
2023-01-22T19:46:51.563Z,72.32
2023-01-22T19:49:18.075Z,72.38
2023-01-22T19:51:44.527Z,72.11
2023-01-22T19:54:12.004Z,72.11
2023-01-22T19:56:40.837Z,72.17
2023-01-22T19:59:10.888Z,71.96
2023-01-22T20:01:38.013Z,72.45
2023-01-22T20:04:08.975Z,72.50
2023-01-22T20:06:35.821Z,72.29
2023-01-22T20:09:03.554Z,72.34
2023-01-22T20:11:30.760Z,72.10
2023-01-22T20:13:58.031Z,72.50
2023-01-22T20:16:27.378Z,72.08
2023-01-22T20:18:55.659Z,72.01
2023-01-22T20:21:23.599Z,71.98
2023-01-22T20:23:51.052Z,72.33
2023-01-22T20:26:19.871Z,72.43
2023-01-22T20:28:47.512Z,72.36
2023-01-22T20:31:17.844Z,71.99
2023-01-22T20:33:45.085Z,72.15
2023-01-22T20:36:15.887Z,72.34
2023-01-22T20:38:45.691Z,72.44
2023-01-22T20:41:14.337Z,72.02
2023-01-22T20:43:42.783Z,72.40
2023-01-22T20:46:14.281Z,72.17
2023-01-22T20:48:41.668Z,72.20
2023-01-22T20:51:20.796Z,72.32
2023-01-22T20:53:48.661Z,72.22
2023-01-22T20:56:17.697Z,72.29
2023-01-22T20:58:44.166Z,72.23
2023-01-22T21:01:14.634Z,72.12
2023-01-22T21:03:42.318Z,72.22
2023-01-22T21:06:13.535Z,72.46
2023-01-22T21:08:41.092Z,72.16
2023-01-22T21:11:10.273Z,72.44
2023-01-22T21:13:36.991Z,72.25
2023-01-22T21:16:15.599Z,72.16
2023-01-22T21:18:44.387Z,72.40
2023-01-22T21:21:14.026Z,72.44
2023-01-22T21:23:40.988Z,72.33
2023-01-22T21:26:09.714Z,72.48
2023-01-22T21:28:36.589Z,72.21
2023-01-22T21:31:07.212Z,72.45
2023-01-22T21:33:33.817Z,72.38
2023-01-22T21:36:00.323Z,72.23
2023-01-22T21:38:27.777Z,72.37
2023-01-22T21:41:05.981Z,72.20
2023-01-22T21:43:51.143Z,72.26
2023-01-22T21:46:25.249Z,72.51
2023-01-22T21:48:59.424Z,72.30
2023-01-22T21:51:26.721Z,72.18
2023-01-22T21:53:55.873Z,72.33
2023-01-22T21:56:23.225Z,72.31
2023-01-22T21:58:50.306Z,72.36
2023-01-22T22:01:21.799Z,72.42
2023-01-22T22:03:48.343Z,72.25
2023-01-22T22:06:14.793Z,72.47
2023-01-22T22:08:43.512Z,72.29
2023-01-22T22:11:12.313Z,72.40
2023-01-22T22:13:39.634Z,72.32
2023-01-22T22:16:07.978Z,72.23
2023-01-22T22:18:34.796Z,72.41
2023-01-22T22:21:03.624Z,72.20
2023-01-22T22:23:30.694Z,72.57
2023-01-22T22:25:57.713Z,72.44
2023-01-22T22:28:24.632Z,72.25
2023-01-22T22:30:51.558Z,72.27
2023-01-22T22:33:18.970Z,72.19
2023-01-22T22:35:46.322Z,72.53
2023-01-22T22:38:13.782Z,72.55
2023-01-22T22:40:40.226Z,72.58
2023-01-22T22:43:07.422Z,72.37
2023-01-22T22:45:38.360Z,72.46
2023-01-22T22:48:05.277Z,72.29
2023-01-22T22:50:31.903Z,72.47
2023-01-22T22:52:58.317Z,72.68
2023-01-22T22:55:28.616Z,72.67
2023-01-22T22:57:55.312Z,72.61
2023-01-22T23:00:22.206Z,72.49
2023-01-22T23:02:48.774Z,72.71
2023-01-22T23:05:15.308Z,72.35
2023-01-22T23:07:41.741Z,72.52
2023-01-22T23:10:28.456Z,72.43
2023-01-22T23:12:57.815Z,72.72
2023-01-22T23:15:26.125Z,72.40
2023-01-22T23:17:54.119Z,72.74
2023-01-22T23:20:20.860Z,72.74
2023-01-22T23:22:49.539Z,72.58
2023-01-22T23:25:16.796Z,72.70
2023-01-22T23:27:44.079Z,72.34
2023-01-22T23:30:12.437Z,72.59
2023-01-22T23:32:39.781Z,72.77
2023-01-22T23:35:06.932Z,72.70
2023-01-22T23:37:33.377Z,72.61
2023-01-22T23:39:59.780Z,72.55
2023-01-22T23:42:26.207Z,72.58
2023-01-22T23:44:52.647Z,72.55
2023-01-22T23:47:20.721Z,72.41
2023-01-22T23:49:47.161Z,72.75
2023-01-22T23:52:13.589Z,72.54
2023-01-22T23:54:40.047Z,72.48
2023-01-22T23:57:06.486Z,72.59
2023-01-22T23:59:32.949Z,72.48
